sensor_id;sensor_type;location;lat;lon;timestamp;pressure;altitude;pressure_sealevel;temperature;humidity
15193;BME280;7697;51.630;7.484;2023-05-03T00:01:32;102097.47;;;7.06;80.37
15193;BME280;7697;51.630;7.484;2023-05-03T00:06:36;102089.41;;;6.98;80.93
15193;BME280;7697;51.630;7.484;2023-05-03T00:11:38;102091.50;;;6.95;81.27
15193;BME280;7697;51.630;7.484;2023-05-03T00:16:39;102088.72;;;6.87;81.33
15193;BME280;7697;51.630;7.484;2023-05-03T00:21:42;102092.06;;;6.79;81.07
15193;BME280;7697;51.630;7.484;2023-05-03T00:26:44;102082.34;;;6.70;81.64
15193;BME280;7697;51.630;7.484;2023-05-03T00:31:46;102082.47;;;6.68;82.13
15193;BME280;7697;51.630;7.484;2023-05-03T00:36:49;102076.75;;;6.63;81.79
15193;BME280;7697;51.630;7.484;2023-05-03T00:41:55;102086.31;;;6.64;82.03
15193;BME280;7697;51.630;7.484;2023-05-03T00:46:57;102092.28;;;6.57;82.95
15193;BME280;7697;51.630;7.484;2023-05-03T00:52:00;102092.13;;;6.49;83.01
15193;BME280;7697;51.630;7.484;2023-05-03T00:57:03;102094.72;;;6.39;82.78
15193;BME280;7697;51.630;7.484;2023-05-03T01:02:07;102100.13;;;6.37;83.15
15193;BME280;7697;51.630;7.484;2023-05-03T01:07:17;102095.28;;;6.33;83.99
15193;BME280;7697;51.630;7.484;2023-05-03T01:12:29;102093.44;;;6.24;83.70
15193;BME280;7697;51.630;7.484;2023-05-03T01:17:38;102093.81;;;6.19;83.72
15193;BME280;7697;51.630;7.484;2023-05-03T01:22:46;102106.31;;;6.17;83.94
15193;BME280;7697;51.630;7.484;2023-05-03T01:27:52;102107.78;;;6.10;84.03
15193;BME280;7697;51.630;7.484;2023-05-03T01:32:59;102103.88;;;6.05;84.67
15193;BME280;7697;51.630;7.484;2023-05-03T01:38:04;102102.63;;;5.99;84.32
15193;BME280;7697;51.630;7.484;2023-05-03T01:43:07;102100.63;;;5.91;84.94
15193;BME280;7697;51.630;7.484;2023-05-03T01:48:14;102101.84;;;5.87;85.38
15193;BME280;7697;51.630;7.484;2023-05-03T01:53:16;102118.56;;;5.86;85.18
15193;BME280;7697;51.630;7.484;2023-05-03T01:58:21;102109.13;;;5.84;85.36
15193;BME280;7697;51.630;7.484;2023-05-03T02:03:23;102120.19;;;5.78;85.66
15193;BME280;7697;51.630;7.484;2023-05-03T02:08:25;102118.06;;;5.72;85.58
15193;BME280;7697;51.630;7.484;2023-05-03T02:13:28;102121.06;;;5.67;85.99
15193;BME280;7697;51.630;7.484;2023-05-03T02:18:29;102129.22;;;5.64;86.25
15193;BME280;7697;51.630;7.484;2023-05-03T02:23:32;102128.06;;;5.57;86.28
15193;BME280;7697;51.630;7.484;2023-05-03T02:28:36;102130.50;;;5.49;85.88
15193;BME280;7697;51.630;7.484;2023-05-03T02:33:38;102149.00;;;5.47;86.09
15193;BME280;7697;51.630;7.484;2023-05-03T02:38:39;102147.63;;;5.43;86.85
15193;BME280;7697;51.630;7.484;2023-05-03T02:43:43;102156.13;;;5.36;86.85
15193;BME280;7697;51.630;7.484;2023-05-03T02:48:44;102145.03;;;5.32;86.38
15193;BME280;7697;51.630;7.484;2023-05-03T02:53:46;102150.41;;;5.31;86.84
15193;BME280;7697;51.630;7.484;2023-05-03T02:58:49;102137.19;;;5.21;87.00
15193;BME280;7697;51.630;7.484;2023-05-03T03:03:51;102150.19;;;5.22;87.15
15193;BME280;7697;51.630;7.484;2023-05-03T03:08:53;102134.13;;;5.16;86.22
15193;BME280;7697;51.630;7.484;2023-05-03T03:13:56;102138.78;;;5.12;87.13
15193;BME280;7697;51.630;7.484;2023-05-03T03:18:58;102142.63;;;5.08;87.38
15193;BME280;7697;51.630;7.484;2023-05-03T03:23:59;102135.09;;;5.04;87.37
15193;BME280;7697;51.630;7.484;2023-05-03T03:29:04;102134.53;;;5.00;87.10
15193;BME280;7697;51.630;7.484;2023-05-03T03:34:06;102121.44;;;4.89;87.46
15193;BME280;7697;51.630;7.484;2023-05-03T03:39:07;102125.25;;;4.85;87.36
15193;BME280;7697;51.630;7.484;2023-05-03T03:44:11;102111.09;;;4.76;87.48
15193;BME280;7697;51.630;7.484;2023-05-03T03:49:13;102116.44;;;4.75;87.09
15193;BME280;7697;51.630;7.484;2023-05-03T03:54:14;102111.34;;;4.73;87.36
15193;BME280;7697;51.630;7.484;2023-05-03T03:59:17;102121.84;;;4.73;87.24
15193;BME280;7697;51.630;7.484;2023-05-03T04:04:19;102112.53;;;4.69;87.51
15193;BME280;7697;51.630;7.484;2023-05-03T04:09:21;102108.38;;;4.67;87.65
15193;BME280;7697;51.630;7.484;2023-05-03T04:14:24;102104.06;;;4.66;87.77
15193;BME280;7697;51.630;7.484;2023-05-03T04:19:26;102105.28;;;4.62;87.46
15193;BME280;7697;51.630;7.484;2023-05-03T04:24:28;102104.56;;;4.60;87.13
15193;BME280;7697;51.630;7.484;2023-05-03T04:29:32;102109.47;;;4.64;87.74
15193;BME280;7697;51.630;7.484;2023-05-03T04:34:34;102100.75;;;4.64;87.64
15193;BME280;7697;51.630;7.484;2023-05-03T04:39:37;102095.75;;;4.61;88.04
15193;BME280;7697;51.630;7.484;2023-05-03T04:44:40;102091.56;;;4.58;88.56
15193;BME280;7697;51.630;7.484;2023-05-03T04:49:42;102100.50;;;4.67;88.50
15193;BME280;7697;51.630;7.484;2023-05-03T04:54:43;102109.56;;;4.74;88.65
15193;BME280;7697;51.630;7.484;2023-05-03T04:59:47;102109.19;;;4.78;88.92
15193;BME280;7697;51.630;7.484;2023-05-03T05:04:49;102123.34;;;4.87;89.15
15193;BME280;7697;51.630;7.484;2023-05-03T05:09:51;102133.63;;;4.90;89.60
15193;BME280;7697;51.630;7.484;2023-05-03T05:14:54;102139.09;;;5.51;90.23
15193;BME280;7697;51.630;7.484;2023-05-03T05:19:56;102140.91;;;5.18;90.93
15193;BME280;7697;51.630;7.484;2023-05-03T05:24:58;102158.06;;;5.22;91.06
15193;BME280;7697;51.630;7.484;2023-05-03T05:30:01;102158.56;;;5.27;90.98
15193;BME280;7697;51.630;7.484;2023-05-03T05:35:04;102162.91;;;5.38;90.96
15193;BME280;7697;51.630;7.484;2023-05-03T05:40:07;102156.78;;;5.49;91.41
15193;BME280;7697;51.630;7.484;2023-05-03T05:45:10;102169.03;;;5.59;91.60
15193;BME280;7697;51.630;7.484;2023-05-03T05:50:12;102168.00;;;5.72;91.39
15193;BME280;7697;51.630;7.484;2023-05-03T05:55:14;102181.75;;;5.96;91.69
15193;BME280;7697;51.630;7.484;2023-05-03T06:00:18;102182.34;;;6.30;90.93
15193;BME280;7697;51.630;7.484;2023-05-03T06:05:21;102180.66;;;6.59;90.88
15193;BME280;7697;51.630;7.484;2023-05-03T06:10:23;102190.47;;;6.88;89.09
15193;BME280;7697;51.630;7.484;2023-05-03T06:15:27;102191.34;;;7.27;87.99
15193;BME280;7697;51.630;7.484;2023-05-03T06:20:29;102200.09;;;7.56;88.15
15193;BME280;7697;51.630;7.484;2023-05-03T06:25:30;102200.78;;;7.87;87.16
15193;BME280;7697;51.630;7.484;2023-05-03T06:30:34;102197.31;;;8.23;86.32
15193;BME280;7697;51.630;7.484;2023-05-03T06:35:35;102202.16;;;8.47;85.23
15193;BME280;7697;51.630;7.484;2023-05-03T06:40:37;102211.91;;;8.74;84.54
15193;BME280;7697;51.630;7.484;2023-05-03T06:45:42;102189.97;;;8.91;83.44
15193;BME280;7697;51.630;7.484;2023-05-03T06:50:44;102185.63;;;9.18;82.74
15193;BME280;7697;51.630;7.484;2023-05-03T06:55:46;102190.56;;;9.48;81.22
15193;BME280;7697;51.630;7.484;2023-05-03T07:00:52;102189.75;;;9.73;80.39
15193;BME280;7697;51.630;7.484;2023-05-03T07:05:54;102189.25;;;9.96;79.95
15193;BME280;7697;51.630;7.484;2023-05-03T07:10:56;102197.25;;;10.30;78.51
15193;BME280;7697;51.630;7.484;2023-05-03T07:15:59;102192.91;;;10.46;76.27
15193;BME280;7697;51.630;7.484;2023-05-03T07:21:01;102201.06;;;10.61;74.91
15193;BME280;7697;51.630;7.484;2023-05-03T07:26:05;102193.38;;;10.84;74.11
15193;BME280;7697;51.630;7.484;2023-05-03T07:31:08;102197.69;;;10.93;73.13
15193;BME280;7697;51.630;7.484;2023-05-03T07:36:10;102196.13;;;11.16;72.94
15193;BME280;7697;51.630;7.484;2023-05-03T07:41:12;102188.03;;;11.42;71.91
15193;BME280;7697;51.630;7.484;2023-05-03T07:46:15;102175.09;;;11.63;71.95
15193;BME280;7697;51.630;7.484;2023-05-03T07:51:18;102178.28;;;11.75;70.88
15193;BME280;7697;51.630;7.484;2023-05-03T07:56:20;102170.75;;;12.03;70.81
15193;BME280;7697;51.630;7.484;2023-05-03T08:01:24;102173.81;;;12.39;70.02
15193;BME280;7697;51.630;7.484;2023-05-03T08:06:26;102168.28;;;12.57;68.88
15193;BME280;7697;51.630;7.484;2023-05-03T08:11:28;102160.88;;;12.75;67.19
15193;BME280;7697;51.630;7.484;2023-05-03T08:16:31;102166.47;;;12.80;67.60
15193;BME280;7697;51.630;7.484;2023-05-03T08:21:33;102156.84;;;13.10;64.94
15193;BME280;7697;51.630;7.484;2023-05-03T08:26:35;102157.09;;;13.46;64.42
15193;BME280;7697;51.630;7.484;2023-05-03T08:31:38;102163.09;;;13.85;63.29
15193;BME280;7697;51.630;7.484;2023-05-03T08:36:40;102153.91;;;14.17;61.42
15193;BME280;7697;51.630;7.484;2023-05-03T08:41:42;102150.78;;;14.28;60.56
15193;BME280;7697;51.630;7.484;2023-05-03T08:46:45;102150.38;;;14.40;60.05
15193;BME280;7697;51.630;7.484;2023-05-03T08:51:47;102164.13;;;14.58;59.99
15193;BME280;7697;51.630;7.484;2023-05-03T08:56:49;102147.00;;;14.67;58.98
15193;BME280;7697;51.630;7.484;2023-05-03T09:01:53;102174.59;;;15.10;58.29
15193;BME280;7697;51.630;7.484;2023-05-03T09:07:06;102166.25;;;15.41;56.34
15193;BME280;7697;51.630;7.484;2023-05-03T09:12:08;102164.84;;;15.66;55.85
15193;BME280;7697;51.630;7.484;2023-05-03T09:17:15;102141.97;;;15.85;56.13
15193;BME280;7697;51.630;7.484;2023-05-03T09:22:21;102135.56;;;16.14;55.52
15193;BME280;7697;51.630;7.484;2023-05-03T09:27:24;102138.78;;;16.37;54.62
15193;BME280;7697;51.630;7.484;2023-05-03T09:32:27;102146.06;;;16.57;54.39
15193;BME280;7697;51.630;7.484;2023-05-03T09:37:35;102142.53;;;16.91;53.36
15193;BME280;7697;51.630;7.484;2023-05-03T09:42:38;102140.44;;;16.93;52.16
15193;BME280;7697;51.630;7.484;2023-05-03T09:47:49;102141.31;;;17.06;51.79
15193;BME280;7697;51.630;7.484;2023-05-03T09:52:54;102124.03;;;17.42;51.69
15193;BME280;7697;51.630;7.484;2023-05-03T09:57:56;102126.13;;;17.66;50.45
15193;BME280;7697;51.630;7.484;2023-05-03T10:03:01;102121.78;;;17.52;50.46
15193;BME280;7697;51.630;7.484;2023-05-03T10:08:08;102106.72;;;17.64;49.48
15193;BME280;7697;51.630;7.484;2023-05-03T10:13:12;102122.78;;;17.57;49.77
15193;BME280;7697;51.630;7.484;2023-05-03T10:18:16;102119.09;;;17.78;48.71
15193;BME280;7697;51.630;7.484;2023-05-03T10:23:20;102112.19;;;18.22;49.45
15193;BME280;7697;51.630;7.484;2023-05-03T10:28:22;102098.03;;;18.59;48.09
15193;BME280;7697;51.630;7.484;2023-05-03T10:33:31;102090.31;;;18.69;46.42
15193;BME280;7697;51.630;7.484;2023-05-03T10:38:35;102100.25;;;18.69;47.65
15193;BME280;7697;51.630;7.484;2023-05-03T10:43:41;102088.78;;;18.87;46.16
15193;BME280;7697;51.630;7.484;2023-05-03T10:49:15;102080.88;;;18.60;46.09
15193;BME280;7697;51.630;7.484;2023-05-03T10:54:17;102087.69;;;18.94;44.86
15193;BME280;7697;51.630;7.484;2023-05-03T10:59:20;102085.00;;;19.19;45.10
15193;BME280;7697;51.630;7.484;2023-05-03T11:04:32;102084.97;;;19.51;43.89
15193;BME280;7697;51.630;7.484;2023-05-03T11:09:36;102067.28;;;19.61;45.34
15193;BME280;7697;51.630;7.484;2023-05-03T11:14:38;102068.06;;;19.68;43.62
15193;BME280;7697;51.630;7.484;2023-05-03T11:19:42;102062.91;;;19.67;42.96
15193;BME280;7697;51.630;7.484;2023-05-03T11:24:44;102047.53;;;19.74;44.45
15193;BME280;7697;51.630;7.484;2023-05-03T11:29:47;102055.38;;;19.94;43.15
15193;BME280;7697;51.630;7.484;2023-05-03T11:34:51;102045.50;;;20.54;43.19
15193;BME280;7697;51.630;7.484;2023-05-03T11:39:53;102046.38;;;20.66;41.48
15193;BME280;7697;51.630;7.484;2023-05-03T11:44:55;102031.59;;;20.57;41.71
15193;BME280;7697;51.630;7.484;2023-05-03T11:49:58;102040.00;;;20.60;41.24
15193;BME280;7697;51.630;7.484;2023-05-03T11:55:01;102039.34;;;20.65;41.79
15193;BME280;7697;51.630;7.484;2023-05-03T12:00:11;102039.38;;;20.88;41.11
15193;BME280;7697;51.630;7.484;2023-05-03T12:05:18;102043.72;;;20.89;41.13
15193;BME280;7697;51.630;7.484;2023-05-03T12:10:21;102051.34;;;21.04;39.60
15193;BME280;7697;51.630;7.484;2023-05-03T12:15:27;102035.31;;;20.97;41.50
15193;BME280;7697;51.630;7.484;2023-05-03T12:20:31;102040.06;;;21.25;41.87
15193;BME280;7697;51.630;7.484;2023-05-03T12:25:34;102028.22;;;21.26;41.59
15193;BME280;7697;51.630;7.484;2023-05-03T12:30:36;102032.44;;;21.46;40.47
15193;BME280;7697;51.630;7.484;2023-05-03T12:35:39;102025.59;;;21.08;38.85
15193;BME280;7697;51.630;7.484;2023-05-03T12:40:41;102021.38;;;21.01;40.38
15193;BME280;7697;51.630;7.484;2023-05-03T12:45:44;102022.31;;;21.06;39.65
15193;BME280;7697;51.630;7.484;2023-05-03T12:50:47;102018.97;;;21.46;40.09
15193;BME280;7697;51.630;7.484;2023-05-03T12:55:49;102005.34;;;21.52;39.39
15193;BME280;7697;51.630;7.484;2023-05-03T13:00:50;102005.72;;;21.32;39.51
15193;BME280;7697;51.630;7.484;2023-05-03T13:05:54;101990.00;;;21.53;39.22
15193;BME280;7697;51.630;7.484;2023-05-03T13:10:56;101987.97;;;21.60;39.05
15193;BME280;7697;51.630;7.484;2023-05-03T13:15:57;101977.41;;;21.58;39.60
15193;BME280;7697;51.630;7.484;2023-05-03T13:21:01;101965.59;;;22.28;37.54
15193;BME280;7697;51.630;7.484;2023-05-03T13:26:03;101959.00;;;21.67;39.94
15193;BME280;7697;51.630;7.484;2023-05-03T13:31:06;101957.34;;;21.66;39.43
15193;BME280;7697;51.630;7.484;2023-05-03T13:36:09;101936.38;;;21.56;39.83
15193;BME280;7697;51.630;7.484;2023-05-03T13:41:11;101924.44;;;21.52;39.77
15193;BME280;7697;51.630;7.484;2023-05-03T13:46:13;101915.44;;;21.47;39.27
15193;BME280;7697;51.630;7.484;2023-05-03T13:51:16;101914.56;;;22.26;38.29
15193;BME280;7697;51.630;7.484;2023-05-03T13:56:18;101906.91;;;22.06;37.54
15193;BME280;7697;51.630;7.484;2023-05-03T14:01:19;101895.94;;;22.13;36.38
15193;BME280;7697;51.630;7.484;2023-05-03T14:06:23;101891.66;;;22.45;37.57
15193;BME280;7697;51.630;7.484;2023-05-03T14:11:25;101901.53;;;22.23;38.93
15193;BME280;7697;51.630;7.484;2023-05-03T14:16:26;101885.81;;;22.37;36.87
15193;BME280;7697;51.630;7.484;2023-05-03T14:21:30;101870.91;;;21.44;39.77
15193;BME280;7697;51.630;7.484;2023-05-03T14:26:32;101861.94;;;21.27;39.95
15193;BME280;7697;51.630;7.484;2023-05-03T14:33:30;101865.44;;;21.04;39.98
15193;BME280;7697;51.630;7.484;2023-05-03T14:38:32;101865.22;;;21.57;37.76
15193;BME280;7697;51.630;7.484;2023-05-03T14:43:33;101841.09;;;21.11;39.95
15193;BME280;7697;51.630;7.484;2023-05-03T14:48:37;101838.41;;;20.99;39.84
15193;BME280;7697;51.630;7.484;2023-05-03T14:53:38;101833.38;;;20.79;39.98
15193;BME280;7697;51.630;7.484;2023-05-03T14:58:40;101830.25;;;20.59;39.77
15193;BME280;7697;51.630;7.484;2023-05-03T15:03:43;101829.47;;;21.22;39.15
15193;BME280;7697;51.630;7.484;2023-05-03T15:08:45;101824.50;;;21.87;37.24
15193;BME280;7697;51.630;7.484;2023-05-03T15:13:47;101815.00;;;20.76;38.86
15193;BME280;7697;51.630;7.484;2023-05-03T15:18:51;101827.66;;;20.52;38.67
15193;BME280;7697;51.630;7.484;2023-05-03T15:23:53;101821.75;;;21.54;37.31
15193;BME280;7697;51.630;7.484;2023-05-03T15:28:55;101802.63;;;20.52;39.57
15193;BME280;7697;51.630;7.484;2023-05-03T15:33:58;101808.34;;;20.44;39.50
15193;BME280;7697;51.630;7.484;2023-05-03T15:39:00;101804.47;;;20.28;40.07
15193;BME280;7697;51.630;7.484;2023-05-03T15:44:01;101802.59;;;20.29;40.19
15193;BME280;7697;51.630;7.484;2023-05-03T15:49:06;101803.69;;;21.14;37.94
15193;BME280;7697;51.630;7.484;2023-05-03T15:54:08;101799.34;;;20.50;39.92
15193;BME280;7697;51.630;7.484;2023-05-03T15:59:09;101797.63;;;21.19;39.00
15193;BME280;7697;51.630;7.484;2023-05-03T16:04:15;101787.28;;;20.41;39.83
15193;BME280;7697;51.630;7.484;2023-05-03T16:09:17;101788.66;;;20.08;40.21
15193;BME280;7697;51.630;7.484;2023-05-03T16:14:20;101796.09;;;19.83;40.18
15193;BME280;7697;51.630;7.484;2023-05-03T16:19:25;101788.28;;;19.52;40.59
15193;BME280;7697;51.630;7.484;2023-05-03T16:24:27;101790.53;;;19.36;41.14
15193;BME280;7697;51.630;7.484;2023-05-03T16:29:29;101784.84;;;19.15;41.29
15193;BME280;7697;51.630;7.484;2023-05-03T16:34:32;101777.47;;;18.92;41.43
15193;BME280;7697;51.630;7.484;2023-05-03T16:39:34;101773.59;;;18.69;42.21
15193;BME280;7697;51.630;7.484;2023-05-03T16:44:36;101775.06;;;18.65;42.83
15193;BME280;7697;51.630;7.484;2023-05-03T16:49:39;101767.13;;;18.52;42.35
15193;BME280;7697;51.630;7.484;2023-05-03T16:54:41;101753.63;;;18.41;42.61
15193;BME280;7697;51.630;7.484;2023-05-03T16:59:43;101757.84;;;18.30;43.21
15193;BME280;7697;51.630;7.484;2023-05-03T17:04:46;101752.66;;;18.10;43.00
15193;BME280;7697;51.630;7.484;2023-05-03T17:09:48;101760.03;;;17.96;43.57
15193;BME280;7697;51.630;7.484;2023-05-03T17:14:50;101756.56;;;17.89;44.00
15193;BME280;7697;51.630;7.484;2023-05-03T17:19:53;101742.56;;;17.87;44.11
15193;BME280;7697;51.630;7.484;2023-05-03T17:24:55;101745.94;;;17.76;44.24
15193;BME280;7697;51.630;7.484;2023-05-03T17:29:57;101742.91;;;17.66;44.45
15193;BME280;7697;51.630;7.484;2023-05-03T17:35:00;101739.66;;;17.57;45.31
15193;BME280;7697;51.630;7.484;2023-05-03T17:40:03;101732.50;;;17.45;45.66
15193;BME280;7697;51.630;7.484;2023-05-03T17:45:06;101749.47;;;17.39;46.16
15193;BME280;7697;51.630;7.484;2023-05-03T17:50:11;101743.38;;;17.25;45.82
15193;BME280;7697;51.630;7.484;2023-05-03T17:55:13;101740.13;;;17.16;46.50
15193;BME280;7697;51.630;7.484;2023-05-03T18:00:16;101739.31;;;17.09;46.81
15193;BME280;7697;51.630;7.484;2023-05-03T18:05:21;101741.19;;;17.02;47.25
15193;BME280;7697;51.630;7.484;2023-05-03T18:10:23;101737.94;;;16.94;47.64
15193;BME280;7697;51.630;7.484;2023-05-03T18:15:28;101735.75;;;16.77;48.13
15193;BME280;7697;51.630;7.484;2023-05-03T18:20:31;101739.06;;;16.66;48.25
15193;BME280;7697;51.630;7.484;2023-05-03T18:25:34;101739.88;;;16.60;48.71
15193;BME280;7697;51.630;7.484;2023-05-03T18:30:36;101746.47;;;16.58;49.30
15193;BME280;7697;51.630;7.484;2023-05-03T18:35:39;101742.00;;;16.45;49.98
15193;BME280;7697;51.630;7.484;2023-05-03T18:40:44;101731.50;;;16.30;50.31
15193;BME280;7697;51.630;7.484;2023-05-03T18:45:46;101737.91;;;16.16;50.45
15193;BME280;7697;51.630;7.484;2023-05-03T18:50:51;101719.00;;;15.98;50.74
15193;BME280;7697;51.630;7.484;2023-05-03T18:55:56;101718.19;;;15.91;51.13
15193;BME280;7697;51.630;7.484;2023-05-03T19:00:58;101727.00;;;15.85;51.33
15193;BME280;7697;51.630;7.484;2023-05-03T19:06:04;101724.75;;;15.75;51.72
15193;BME280;7697;51.630;7.484;2023-05-03T19:11:07;101725.97;;;15.59;52.28
15193;BME280;7697;51.630;7.484;2023-05-03T19:16:12;101725.13;;;15.46;52.22
15193;BME280;7697;51.630;7.484;2023-05-03T19:21:16;101731.25;;;15.39;52.78
15193;BME280;7697;51.630;7.484;2023-05-03T19:26:20;101734.53;;;15.28;53.24
15193;BME280;7697;51.630;7.484;2023-05-03T19:31:22;101741.47;;;15.16;53.51
15193;BME280;7697;51.630;7.484;2023-05-03T19:36:27;101723.34;;;14.98;54.25
15193;BME280;7697;51.630;7.484;2023-05-03T19:41:29;101731.91;;;14.87;54.15
15193;BME280;7697;51.630;7.484;2023-05-03T19:46:34;101733.09;;;14.78;54.42
15193;BME280;7697;51.630;7.484;2023-05-03T19:51:38;101731.41;;;14.64;54.34
15193;BME280;7697;51.630;7.484;2023-05-03T19:56:39;101721.66;;;14.50;54.55
15193;BME280;7697;51.630;7.484;2023-05-03T20:01:41;101723.97;;;14.32;55.17
15193;BME280;7697;51.630;7.484;2023-05-03T20:06:45;101722.09;;;14.25;54.86
15193;BME280;7697;51.630;7.484;2023-05-03T20:11:47;101719.97;;;14.14;55.57
15193;BME280;7697;51.630;7.484;2023-05-03T20:16:49;101727.53;;;14.11;55.49
15193;BME280;7697;51.630;7.484;2023-05-03T20:21:52;101726.69;;;14.04;55.80
15193;BME280;7697;51.630;7.484;2023-05-03T20:26:54;101731.75;;;13.99;55.60
15193;BME280;7697;51.630;7.484;2023-05-03T20:31:56;101736.88;;;14.00;56.47
15193;BME280;7697;51.630;7.484;2023-05-03T20:36:59;101721.59;;;13.87;56.42
15193;BME280;7697;51.630;7.484;2023-05-03T20:42:01;101723.84;;;13.84;56.51
15193;BME280;7697;51.630;7.484;2023-05-03T20:47:03;101728.91;;;13.79;57.38
15193;BME280;7697;51.630;7.484;2023-05-03T20:52:06;101722.66;;;13.65;57.44
15193;BME280;7697;51.630;7.484;2023-05-03T20:57:10;101718.28;;;13.58;57.46
15193;BME280;7697;51.630;7.484;2023-05-03T21:02:12;101712.28;;;13.49;57.71
15193;BME280;7697;51.630;7.484;2023-05-03T21:07:15;101705.59;;;13.38;58.14
15193;BME280;7697;51.630;7.484;2023-05-03T21:12:17;101697.56;;;13.32;58.42
15193;BME280;7697;51.630;7.484;2023-05-03T21:17:19;101705.56;;;13.17;58.91
15193;BME280;7697;51.630;7.484;2023-05-03T21:22:22;101718.78;;;13.10;58.79
15193;BME280;7697;51.630;7.484;2023-05-03T21:27:23;101725.28;;;13.08;58.91
15193;BME280;7697;51.630;7.484;2023-05-03T21:32:25;101726.22;;;13.00;59.55
15193;BME280;7697;51.630;7.484;2023-05-03T21:37:28;101708.56;;;12.93;59.92
15193;BME280;7697;51.630;7.484;2023-05-03T21:42:30;101706.25;;;12.90;59.73
15193;BME280;7697;51.630;7.484;2023-05-03T21:47:32;101709.91;;;12.89;60.02
15193;BME280;7697;51.630;7.484;2023-05-03T21:52:35;101704.09;;;12.78;59.91
15193;BME280;7697;51.630;7.484;2023-05-03T21:57:37;101689.03;;;12.71;60.45
15193;BME280;7697;51.630;7.484;2023-05-03T22:02:39;101691.63;;;12.64;60.82
15193;BME280;7697;51.630;7.484;2023-05-03T22:07:42;101688.81;;;12.51;61.09
15193;BME280;7697;51.630;7.484;2023-05-03T22:12:44;101685.88;;;12.46;61.34
15193;BME280;7697;51.630;7.484;2023-05-03T22:17:46;101684.13;;;12.38;61.37
15193;BME280;7697;51.630;7.484;2023-05-03T22:22:50;101681.00;;;12.35;61.89
15193;BME280;7697;51.630;7.484;2023-05-03T22:27:53;101681.22;;;12.33;61.92
15193;BME280;7697;51.630;7.484;2023-05-03T22:32:54;101683.75;;;12.27;61.92
15193;BME280;7697;51.630;7.484;2023-05-03T22:37:57;101670.22;;;12.22;62.22
15193;BME280;7697;51.630;7.484;2023-05-03T22:42:59;101678.28;;;12.14;62.48
15193;BME280;7697;51.630;7.484;2023-05-03T22:48:01;101680.63;;;12.09;62.52
15193;BME280;7697;51.630;7.484;2023-05-03T22:53:05;101668.09;;;12.02;62.78
15193;BME280;7697;51.630;7.484;2023-05-03T22:58:06;101668.44;;;11.99;62.77
15193;BME280;7697;51.630;7.484;2023-05-03T23:03:08;101660.56;;;11.91;63.10
15193;BME280;7697;51.630;7.484;2023-05-03T23:08:12;101663.78;;;11.87;63.60
15193;BME280;7697;51.630;7.484;2023-05-03T23:13:14;101666.13;;;11.82;63.05
15193;BME280;7697;51.630;7.484;2023-05-03T23:18:15;101659.03;;;11.74;63.25
15193;BME280;7697;51.630;7.484;2023-05-03T23:23:19;101656.94;;;11.70;63.36
15193;BME280;7697;51.630;7.484;2023-05-03T23:28:21;101641.91;;;11.62;63.77
15193;BME280;7697;51.630;7.484;2023-05-03T23:33:23;101646.56;;;11.60;64.01
15193;BME280;7697;51.630;7.484;2023-05-03T23:38:26;101642.34;;;11.51;63.86
15193;BME280;7697;51.630;7.484;2023-05-03T23:43:27;101630.59;;;11.45;64.35
15193;BME280;7697;51.630;7.484;2023-05-03T23:48:29;101626.56;;;11.35;64.61
15193;BME280;7697;51.630;7.484;2023-05-03T23:53:32;101620.59;;;11.33;64.98
15193;BME280;7697;51.630;7.484;2023-05-03T23:58:34;101615.72;;;11.21;65.16
